createdAt,value
2019-05-15T00:00:55.544Z,0.00
2019-05-15T00:01:55.532Z,0.00
2019-05-15T00:02:55.510Z,0.00
2019-05-15T00:03:55.500Z,0.00
2019-05-15T00:04:55.475Z,0.00
2019-05-15T00:05:55.464Z,0.00
2019-05-15T00:06:55.442Z,0.00
2019-05-15T00:07:55.424Z,0.00
2019-05-15T00:08:55.411Z,0.00
2019-05-15T00:09:55.401Z,0.00
2019-05-15T00:10:55.378Z,0.00
2019-05-15T00:11:55.371Z,0.00
2019-05-15T00:12:55.343Z,0.00
2019-05-15T00:13:55.331Z,0.00
2019-05-15T00:14:55.311Z,0.00
2019-05-15T00:15:55.299Z,0.00
2019-05-15T00:16:55.281Z,0.00
2019-05-15T00:17:55.269Z,0.00
2019-05-15T00:18:55.253Z,0.00
2019-05-15T00:19:55.226Z,0.00
2019-05-15T00:20:55.204Z,0.00
2019-05-15T00:21:55.193Z,0.00
2019-05-15T00:22:55.170Z,0.00
2019-05-15T00:23:55.165Z,0.00
2019-05-15T00:24:55.141Z,0.00
2019-05-15T00:25:55.136Z,0.00
2019-05-15T00:26:55.106Z,0.00
2019-05-15T00:27:55.092Z,0.00
2019-05-15T00:29:07.695Z,0.00
2019-05-15T00:29:55.057Z,0.00
2019-05-15T00:30:55.050Z,0.00
2019-05-15T00:31:55.023Z,0.00
2019-05-15T00:32:55.009Z,0.00
2019-05-15T00:33:54.982Z,0.00
2019-05-15T00:34:54.976Z,0.00
2019-05-15T00:35:54.958Z,0.00
2019-05-15T00:36:54.938Z,0.00
2019-05-15T00:37:54.923Z,0.00
2019-05-15T00:38:54.906Z,0.00
2019-05-15T00:39:54.890Z,0.00
2019-05-15T00:40:54.876Z,0.00
2019-05-15T00:41:55.040Z,0.00
2019-05-15T00:42:54.841Z,0.00
2019-05-15T00:43:54.826Z,0.00
2019-05-15T00:44:54.807Z,0.00
2019-05-15T00:45:54.789Z,0.00
2019-05-15T00:46:54.779Z,0.00
2019-05-15T00:47:54.751Z,0.00
2019-05-15T00:48:54.741Z,0.00
2019-05-15T00:49:54.720Z,0.00
2019-05-15T00:50:54.703Z,0.00
2019-05-15T00:51:54.689Z,0.00
2019-05-15T00:52:54.668Z,0.00
2019-05-15T00:53:54.657Z,0.00
2019-05-15T00:54:54.637Z,0.00
2019-05-15T00:55:54.618Z,0.00
2019-05-15T00:56:54.612Z,0.00
2019-05-15T00:57:54.587Z,0.00
2019-05-15T00:58:54.568Z,0.00
2019-05-15T00:59:54.548Z,0.00
2019-05-15T01:00:54.538Z,0.00
2019-05-15T01:01:54.517Z,0.00
2019-05-15T01:02:54.498Z,0.00
2019-05-15T01:03:54.484Z,0.00
2019-05-15T01:04:54.466Z,0.00
2019-05-15T01:05:54.449Z,0.00
2019-05-15T01:06:54.435Z,0.00
2019-05-15T01:07:54.415Z,0.00
2019-05-15T01:08:54.403Z,0.00
2019-05-15T01:09:54.379Z,0.00
2019-05-15T01:10:54.364Z,0.00
2019-05-15T01:11:54.349Z,0.00
2019-05-15T01:12:54.347Z,0.00
2019-05-15T01:13:54.314Z,0.00
2019-05-15T01:14:54.294Z,0.00
2019-05-15T01:15:54.284Z,0.00
2019-05-15T01:16:54.258Z,0.00
2019-05-15T01:17:54.244Z,0.00
2019-05-15T01:18:54.226Z,0.00
2019-05-15T01:19:54.210Z,0.00
2019-05-15T01:20:54.192Z,0.00
2019-05-15T01:21:54.173Z,0.00
2019-05-15T01:22:54.165Z,0.00
2019-05-15T01:23:54.145Z,0.00
2019-05-15T01:24:54.123Z,0.00
2019-05-15T01:25:54.114Z,0.00
2019-05-15T01:26:54.092Z,0.00
2019-05-15T01:27:54.078Z,0.00
2019-05-15T01:28:54.056Z,0.00
2019-05-15T01:29:54.039Z,0.00
2019-05-15T01:30:54.019Z,0.00
2019-05-15T01:31:54.006Z,0.00
2019-05-15T01:32:53.993Z,0.00
2019-05-15T01:33:53.973Z,0.00
2019-05-15T01:34:53.962Z,0.00
2019-05-15T01:35:53.940Z,0.00
2019-05-15T01:36:53.922Z,0.00
2019-05-15T01:37:53.904Z,0.00
2019-05-15T01:38:53.886Z,0.00
2019-05-15T01:39:53.869Z,0.00
2019-05-15T01:40:53.848Z,0.00
2019-05-15T01:41:53.832Z,0.00
2019-05-15T01:42:53.816Z,0.00
2019-05-15T01:43:53.798Z,0.00
2019-05-15T01:44:53.788Z,0.00
2019-05-15T01:45:53.761Z,0.00
2019-05-15T01:46:53.749Z,0.00
2019-05-15T01:47:53.731Z,0.00
2019-05-15T01:48:53.715Z,0.00
2019-05-15T01:49:53.694Z,0.00
2019-05-15T01:50:53.695Z,0.00
2019-05-15T01:51:53.662Z,0.00
2019-05-15T01:52:53.646Z,0.00
2019-05-15T01:53:53.634Z,0.00
2019-05-15T01:54:53.612Z,0.00
2019-05-15T01:55:53.593Z,0.00
2019-05-15T01:56:53.580Z,0.00
2019-05-15T01:57:53.563Z,0.00
2019-05-15T01:58:53.549Z,0.00
2019-05-15T01:59:57.391Z,0.00
2019-05-15T02:00:53.511Z,0.00
2019-05-15T02:01:53.492Z,0.00
2019-05-15T02:02:53.468Z,0.00
2019-05-15T02:03:53.458Z,0.00
2019-05-15T02:04:53.442Z,0.00
2019-05-15T02:05:53.420Z,0.00
2019-05-15T02:06:53.402Z,0.00
2019-05-15T02:07:53.390Z,0.00
2019-05-15T02:08:53.374Z,0.00
2019-05-15T02:09:53.349Z,0.00
2019-05-15T02:10:53.343Z,0.00
2019-05-15T02:11:53.319Z,0.00
2019-05-15T02:12:53.300Z,0.00
2019-05-15T02:13:53.283Z,0.00
2019-05-15T02:14:53.267Z,0.00
2019-05-15T02:15:53.251Z,0.00
2019-05-15T02:16:53.231Z,0.00
2019-05-15T02:17:53.225Z,0.00
2019-05-15T02:18:53.202Z,0.00
2019-05-15T02:19:53.184Z,0.00
2019-05-15T02:20:53.166Z,0.00
2019-05-15T02:21:53.166Z,0.00
2019-05-15T02:22:53.126Z,0.00
2019-05-15T02:23:53.110Z,0.00
2019-05-15T02:24:53.099Z,0.00
2019-05-15T02:25:53.079Z,0.00
2019-05-15T02:26:53.055Z,0.00
2019-05-15T02:27:53.039Z,0.00
2019-05-15T02:28:53.025Z,0.00
2019-05-15T02:29:53.004Z,0.00
2019-05-15T02:30:52.984Z,0.00
2019-05-15T02:31:52.975Z,0.00
2019-05-15T02:32:52.957Z,0.00
2019-05-15T02:33:52.935Z,0.00
2019-05-15T02:34:52.924Z,0.00
2019-05-15T02:35:52.900Z,0.00
2019-05-15T02:36:52.885Z,0.00
2019-05-15T02:37:52.864Z,0.00
2019-05-15T02:38:52.859Z,0.00
2019-05-15T02:39:52.844Z,0.00
2019-05-15T02:40:52.823Z,0.00
2019-05-15T02:41:52.811Z,0.00
2019-05-15T02:42:52.779Z,0.00
2019-05-15T02:43:52.765Z,0.00
2019-05-15T02:44:52.742Z,0.00
2019-05-15T02:45:52.734Z,0.00
2019-05-15T02:46:52.710Z,0.00
2019-05-15T02:47:52.702Z,0.00
2019-05-15T02:48:52.680Z,0.00
2019-05-15T02:49:52.664Z,0.00
2019-05-15T02:50:52.655Z,0.00
2019-05-15T02:51:52.627Z,0.00
2019-05-15T02:52:52.612Z,0.00
2019-05-15T02:53:52.593Z,0.00
2019-05-15T02:54:52.576Z,0.00
2019-05-15T02:55:52.558Z,0.00
2019-05-15T02:56:52.537Z,0.00
2019-05-15T02:57:52.527Z,0.00
2019-05-15T02:58:52.517Z,0.00
2019-05-15T02:59:52.491Z,0.00
2019-05-15T03:00:53.603Z,0.00
2019-05-15T03:01:52.453Z,0.00
2019-05-15T03:02:52.435Z,0.00
2019-05-15T03:03:52.420Z,0.00
2019-05-15T03:04:52.398Z,0.00
2019-05-15T03:05:52.382Z,0.00
2019-05-15T03:06:52.375Z,0.00
2019-05-15T03:07:52.349Z,0.00
2019-05-15T03:08:52.332Z,0.00
2019-05-15T03:09:52.314Z,0.00
2019-05-15T03:10:52.299Z,0.00
2019-05-15T03:11:52.293Z,0.00
2019-05-15T03:12:52.265Z,0.00
2019-05-15T03:13:52.243Z,0.00
2019-05-15T03:14:52.229Z,0.00
2019-05-15T03:15:52.213Z,0.00
2019-05-15T03:16:52.198Z,0.00
2019-05-15T03:17:52.171Z,0.00
2019-05-15T03:18:55.787Z,0.00
2019-05-15T03:19:52.139Z,0.00
2019-05-15T03:20:52.127Z,0.00
2019-05-15T03:21:52.118Z,0.00
2019-05-15T03:22:52.096Z,0.00
2019-05-15T03:23:52.081Z,0.00
2019-05-15T03:24:52.058Z,0.00
2019-05-15T03:25:52.040Z,0.00
2019-05-15T03:26:52.023Z,0.00
2019-05-15T03:27:52.003Z,0.00
2019-05-15T03:28:51.988Z,0.00
2019-05-15T03:29:51.966Z,0.00
2019-05-15T03:31:15.781Z,0.00
2019-05-15T03:32:06.028Z,0.00
2019-05-15T03:33:01.026Z,0.00
2019-05-15T03:33:54.308Z,0.00
2019-05-15T03:34:56.242Z,4.00
2019-05-15T03:35:54.389Z,4.00
2019-05-15T03:36:53.416Z,0.00
2019-05-15T03:37:51.828Z,0.00
2019-05-15T03:38:51.816Z,0.00
2019-05-15T03:39:52.188Z,0.00
2019-05-15T03:40:51.779Z,4.00
2019-05-15T03:41:51.758Z,4.00
2019-05-15T03:42:51.740Z,0.00
2019-05-15T03:43:51.725Z,4.00
2019-05-15T03:44:51.703Z,4.00
2019-05-15T03:45:51.696Z,4.00
2019-05-15T03:46:51.687Z,4.00
2019-05-15T03:47:51.656Z,4.00
2019-05-15T03:48:51.641Z,4.00
2019-05-15T03:49:51.621Z,8.00
2019-05-15T03:50:51.603Z,4.00
2019-05-15T03:51:51.583Z,4.00
2019-05-15T03:52:51.565Z,8.00
2019-05-15T03:53:51.549Z,8.00
2019-05-15T03:54:51.533Z,8.00
2019-05-15T03:55:51.520Z,8.00
2019-05-15T03:56:51.501Z,8.00
2019-05-15T03:57:51.482Z,8.00
2019-05-15T03:58:51.458Z,8.00
2019-05-15T03:59:51.440Z,8.00
2019-05-15T04:00:51.428Z,8.00
2019-05-15T04:01:51.410Z,12.00
2019-05-15T04:02:51.399Z,12.00
2019-05-15T04:03:51.377Z,12.00
2019-05-15T04:04:51.353Z,12.00
2019-05-15T04:05:51.338Z,12.00
2019-05-15T04:06:51.318Z,16.00
2019-05-15T04:07:51.310Z,16.00
2019-05-15T04:08:51.283Z,12.00
2019-05-15T04:09:51.268Z,16.00
2019-05-15T04:10:51.252Z,20.00
2019-05-15T04:11:51.233Z,20.00
2019-05-15T04:12:51.231Z,20.00
2019-05-15T04:13:51.209Z,20.00
2019-05-15T04:14:51.180Z,20.00
2019-05-15T04:15:51.163Z,16.00
2019-05-15T04:16:51.146Z,16.00
2019-05-15T04:17:51.131Z,20.00
2019-05-15T04:18:51.111Z,16.00
2019-05-15T04:19:51.098Z,16.00
2019-05-15T04:20:51.075Z,16.00
2019-05-15T04:21:51.062Z,20.00
2019-05-15T04:22:51.037Z,20.00
2019-05-15T04:23:51.025Z,20.00
2019-05-15T04:24:51.007Z,24.00
2019-05-15T04:25:50.991Z,24.00
2019-05-15T04:26:50.965Z,28.00
2019-05-15T04:27:50.951Z,28.00
2019-05-15T04:28:50.940Z,32.00
2019-05-15T04:29:50.922Z,32.00
2019-05-15T04:30:50.893Z,36.00
2019-05-15T04:32:00.619Z,40.00
2019-05-15T04:32:50.860Z,40.00
2019-05-15T04:33:50.841Z,44.00
2019-05-15T04:34:50.831Z,44.00
2019-05-15T04:35:50.807Z,44.00
2019-05-15T04:36:50.790Z,44.00
2019-05-15T04:37:50.772Z,44.00
2019-05-15T04:38:50.757Z,40.00
2019-05-15T04:39:50.738Z,44.00
2019-05-15T04:40:50.727Z,44.00
2019-05-15T04:41:50.713Z,48.00
2019-05-15T04:42:50.681Z,44.00
2019-05-15T04:43:50.664Z,44.00
2019-05-15T04:44:50.640Z,48.00
2019-05-15T04:45:50.626Z,52.00
2019-05-15T04:46:50.624Z,52.00
2019-05-15T04:47:50.610Z,48.00
2019-05-15T04:48:50.844Z,52.00
2019-05-15T04:49:50.648Z,48.00
2019-05-15T04:50:50.538Z,56.00
2019-05-15T04:51:50.526Z,64.00
2019-05-15T04:52:50.502Z,64.00
2019-05-15T04:53:50.703Z,64.00
2019-05-15T04:54:50.466Z,60.00
2019-05-15T04:55:50.447Z,60.00
2019-05-15T04:56:50.435Z,60.00
2019-05-15T04:57:50.428Z,64.00
2019-05-15T04:58:51.139Z,68.00
2019-05-15T04:59:50.378Z,68.00
2019-05-15T05:00:50.445Z,68.00
2019-05-15T05:01:53.333Z,76.00
2019-05-15T05:02:50.322Z,76.00
2019-05-15T05:03:50.303Z,76.00
2019-05-15T05:04:50.290Z,72.00
2019-05-15T05:05:50.508Z,64.00
2019-05-15T05:06:50.256Z,64.00
2019-05-15T05:07:50.231Z,64.00
2019-05-15T05:08:50.212Z,72.00
2019-05-15T05:09:50.195Z,72.00
2019-05-15T05:10:50.181Z,76.00
2019-05-15T05:11:50.159Z,80.00
2019-05-15T05:12:51.065Z,88.00
2019-05-15T05:13:50.129Z,92.00
2019-05-15T05:14:50.109Z,100.00
2019-05-15T05:15:50.632Z,92.00
2019-05-15T05:16:50.076Z,88.00
2019-05-15T05:17:50.056Z,92.00
2019-05-15T05:18:50.033Z,100.00
2019-05-15T05:19:51.436Z,100.00
2019-05-15T05:20:50.008Z,100.00
2019-05-15T05:21:49.981Z,108.00
2019-05-15T05:22:49.972Z,112.00
2019-05-15T05:23:49.949Z,112.00
2019-05-15T05:24:49.927Z,108.00
2019-05-15T05:25:49.909Z,100.00
2019-05-15T05:26:49.898Z,92.00
2019-05-15T05:27:49.873Z,88.00
2019-05-15T05:28:49.857Z,84.00
2019-05-15T05:29:49.841Z,80.00
2019-05-15T05:30:49.823Z,80.00
2019-05-15T05:31:49.812Z,88.00
2019-05-15T05:32:49.787Z,108.00
2019-05-15T05:33:49.767Z,120.00
2019-05-15T05:34:49.759Z,132.00
2019-05-15T05:35:49.737Z,136.00
2019-05-15T05:36:49.722Z,132.00
2019-05-15T05:37:49.697Z,136.00
2019-05-15T05:38:49.704Z,136.00
2019-05-15T05:39:49.663Z,140.00
2019-05-15T05:40:50.097Z,144.00
2019-05-15T05:41:49.623Z,144.00
2019-05-15T05:42:49.611Z,156.00
2019-05-15T05:43:49.594Z,160.00
2019-05-15T05:44:49.570Z,172.00
2019-05-15T05:45:49.731Z,176.00
2019-05-15T05:46:49.541Z,164.00
2019-05-15T05:47:49.527Z,156.00
2019-05-15T05:48:49.503Z,152.00
2019-05-15T05:49:49.484Z,152.00
2019-05-15T05:50:50.206Z,160.00
2019-05-15T05:51:49.456Z,176.00
2019-05-15T05:52:49.428Z,184.00
2019-05-15T05:53:49.407Z,188.00
2019-05-15T05:54:49.393Z,184.00
2019-05-15T05:55:53.001Z,172.00
2019-05-15T05:56:49.362Z,160.00
2019-05-15T05:57:49.339Z,160.00
2019-05-15T05:58:49.403Z,168.00
2019-05-15T05:59:49.312Z,184.00
2019-05-15T06:00:49.426Z,196.00
2019-05-15T06:01:49.284Z,220.00
2019-05-15T06:02:52.308Z,244.00
2019-05-15T06:03:49.397Z,236.00
2019-05-15T06:04:49.224Z,216.00
2019-05-15T06:05:49.889Z,204.00
2019-05-15T06:07:05.928Z,180.00
2019-05-15T06:07:49.168Z,172.00
2019-05-15T06:08:49.151Z,172.00
2019-05-15T06:09:49.131Z,176.00
2019-05-15T06:10:49.616Z,176.00
2019-05-15T06:11:49.098Z,184.00
2019-05-15T06:12:49.173Z,188.00
2019-05-15T06:13:52.321Z,184.00
2019-05-15T06:14:49.046Z,176.00
2019-05-15T06:15:49.266Z,164.00
2019-05-15T06:16:49.009Z,156.00
2019-05-15T06:17:48.993Z,156.00
2019-05-15T06:18:49.341Z,164.00
2019-05-15T06:19:48.959Z,184.00
2019-05-15T06:20:49.700Z,204.00
2019-05-15T06:21:56.667Z,208.00
2019-05-15T06:22:48.906Z,216.00
2019-05-15T06:23:55.082Z,212.00
2019-05-15T06:24:48.876Z,208.00
2019-05-15T06:25:48.860Z,220.00
2019-05-15T06:26:48.840Z,236.00
2019-05-15T06:27:48.821Z,256.00
2019-05-15T06:28:49.201Z,264.00
2019-05-15T06:29:48.791Z,264.00
2019-05-15T06:30:48.840Z,260.00
2019-05-15T06:31:48.758Z,280.00
2019-05-15T06:33:04.296Z,276.00
2019-05-15T06:33:49.150Z,276.00
2019-05-15T06:34:48.708Z,280.00
2019-05-15T06:35:49.284Z,288.00
2019-05-15T06:36:48.784Z,300.00
2019-05-15T06:37:48.655Z,316.00
2019-05-15T06:38:48.648Z,316.00
2019-05-15T06:39:48.615Z,316.00
2019-05-15T06:40:48.756Z,316.00
2019-05-15T06:41:48.581Z,304.00
2019-05-15T06:42:48.561Z,296.00
2019-05-15T06:43:48.619Z,280.00
2019-05-15T06:44:48.572Z,268.00
2019-05-15T06:45:48.960Z,260.00
2019-05-15T06:46:48.519Z,256.00
2019-05-15T06:47:48.481Z,268.00
2019-05-15T06:48:48.730Z,280.00
2019-05-15T06:49:48.735Z,284.00
2019-05-15T06:50:49.338Z,284.00
2019-05-15T06:51:48.872Z,268.00
2019-05-15T06:52:48.671Z,248.00
2019-05-15T06:53:49.197Z,248.00
2019-05-15T06:54:48.630Z,248.00
2019-05-15T06:55:48.842Z,256.00
2019-05-15T06:56:49.313Z,264.00
2019-05-15T06:57:48.566Z,260.00
2019-05-15T06:58:48.679Z,252.00
2019-05-15T06:59:48.531Z,244.00
2019-05-15T07:00:49.123Z,240.00
2019-05-15T07:01:48.299Z,240.00
2019-05-15T07:02:48.627Z,244.00
2019-05-15T07:03:48.555Z,256.00
2019-05-15T07:04:48.812Z,280.00
2019-05-15T07:05:50.831Z,296.00
2019-05-15T07:06:48.969Z,296.00
2019-05-15T07:07:48.835Z,304.00
2019-05-15T07:08:49.667Z,328.00
2019-05-15T07:09:48.612Z,344.00
2019-05-15T07:10:48.685Z,340.00
2019-05-15T07:11:48.376Z,328.00
2019-05-15T07:12:51.246Z,332.00
2019-05-15T07:13:48.631Z,336.00
2019-05-15T07:14:48.715Z,336.00
2019-05-15T07:15:49.647Z,336.00
2019-05-15T07:16:48.760Z,348.00
2019-05-15T07:17:48.385Z,352.00
2019-05-15T07:18:48.533Z,352.00
2019-05-15T07:19:48.541Z,356.00
2019-05-15T07:20:48.767Z,364.00
2019-05-15T07:21:48.691Z,360.00
2019-05-15T07:22:49.085Z,356.00
2019-05-15T07:23:49.648Z,364.00
2019-05-15T07:24:47.956Z,376.00
2019-05-15T07:25:49.905Z,384.00
2019-05-15T07:26:48.366Z,384.00
2019-05-15T07:27:47.966Z,384.00
2019-05-15T07:28:48.590Z,364.00
2019-05-15T07:29:48.771Z,352.00
2019-05-15T07:30:49.337Z,364.00
2019-05-15T07:31:47.875Z,380.00
2019-05-15T07:32:48.738Z,376.00
2019-05-15T07:33:49.165Z,348.00
2019-05-15T07:34:48.398Z,328.00
2019-05-15T07:35:49.321Z,328.00
2019-05-15T07:36:49.283Z,348.00
2019-05-15T07:37:47.914Z,368.00
2019-05-15T07:38:48.567Z,364.00
2019-05-15T07:39:48.810Z,340.00
2019-05-15T07:40:54.577Z,328.00
2019-05-15T07:41:48.360Z,316.00
2019-05-15T07:42:49.043Z,308.00
2019-05-15T07:43:49.431Z,304.00
2019-05-15T07:44:48.171Z,316.00
2019-05-15T07:45:54.008Z,320.00
2019-05-15T07:46:48.877Z,324.00
2019-05-15T07:47:48.994Z,328.00
2019-05-15T07:48:49.111Z,324.00
2019-05-15T07:49:49.254Z,332.00
2019-05-15T07:50:49.641Z,336.00
2019-05-15T07:51:48.848Z,344.00
2019-05-15T07:52:48.553Z,360.00
2019-05-15T07:53:48.979Z,360.00
2019-05-15T07:54:48.792Z,348.00
2019-05-15T07:55:50.124Z,360.00
2019-05-15T07:56:48.796Z,356.00
2019-05-15T07:57:49.593Z,344.00
2019-05-15T07:58:52.430Z,320.00
2019-05-15T07:59:48.056Z,292.00
2019-05-15T08:00:49.247Z,276.00
2019-05-15T08:01:48.913Z,288.00
2019-05-15T08:02:48.080Z,304.00
2019-05-15T08:03:56.513Z,304.00
2019-05-15T08:04:48.235Z,300.00
2019-05-15T08:05:56.122Z,324.00
2019-05-15T08:06:49.006Z,352.00
2019-05-15T08:07:48.976Z,368.00
2019-05-15T08:08:48.644Z,380.00
2019-05-15T08:09:48.596Z,376.00
2019-05-15T08:10:48.995Z,376.00
2019-05-15T08:11:48.683Z,376.00
2019-05-15T08:12:49.263Z,372.00
2019-05-15T08:13:48.685Z,380.00
2019-05-15T08:14:48.371Z,380.00
2019-05-15T08:15:48.707Z,384.00
2019-05-15T08:16:48.509Z,384.00
2019-05-15T08:18:04.217Z,392.00
2019-05-15T08:18:48.382Z,388.00
2019-05-15T08:19:48.681Z,376.00
2019-05-15T08:20:49.086Z,372.00
2019-05-15T08:21:51.404Z,380.00
2019-05-15T08:22:48.917Z,384.00
2019-05-15T08:23:48.498Z,392.00
2019-05-15T08:24:48.378Z,400.00
2019-05-15T08:25:48.560Z,388.00
2019-05-15T08:26:48.679Z,392.00
2019-05-15T08:27:48.432Z,404.00
2019-05-15T08:28:48.754Z,428.00
2019-05-15T08:29:48.698Z,440.00
2019-05-15T08:30:49.033Z,444.00
2019-05-15T08:31:48.332Z,452.00
2019-05-15T08:32:50.755Z,436.00
2019-05-15T08:33:48.156Z,428.00
2019-05-15T08:34:48.064Z,416.00
2019-05-15T08:35:51.145Z,432.00
2019-05-15T08:36:48.189Z,408.00
2019-05-15T08:37:48.851Z,420.00
2019-05-15T08:38:48.569Z,444.00
2019-05-15T08:39:48.767Z,428.00
2019-05-15T08:40:48.622Z,396.00
2019-05-15T08:41:48.467Z,372.00
2019-05-15T08:42:54.451Z,368.00
2019-05-15T08:43:48.484Z,372.00
2019-05-15T08:44:48.785Z,376.00
2019-05-15T08:45:49.169Z,380.00
2019-05-15T08:46:48.043Z,400.00
2019-05-15T08:47:48.984Z,432.00
2019-05-15T08:48:48.918Z,452.00
2019-05-15T08:49:48.476Z,436.00
2019-05-15T08:50:48.699Z,420.00
2019-05-15T08:51:48.491Z,408.00
2019-05-15T08:52:48.543Z,408.00
2019-05-15T08:53:48.642Z,412.00
2019-05-15T08:54:48.670Z,416.00
2019-05-15T08:55:48.089Z,416.00
2019-05-15T08:56:48.397Z,404.00
2019-05-15T08:57:54.185Z,388.00
2019-05-15T08:58:48.472Z,384.00
2019-05-15T08:59:48.699Z,388.00
2019-05-15T09:00:51.843Z,384.00
2019-05-15T09:01:46.233Z,388.00
2019-05-15T09:02:48.659Z,392.00
2019-05-15T09:03:48.675Z,404.00
2019-05-15T09:04:48.505Z,428.00
2019-05-15T09:05:48.567Z,460.00
2019-05-15T09:06:49.507Z,472.00
2019-05-15T09:07:48.464Z,492.00
2019-05-15T09:08:48.880Z,508.00
2019-05-15T09:09:48.524Z,520.00
2019-05-15T09:10:46.088Z,524.00
2019-05-15T09:11:48.237Z,524.00
2019-05-15T09:12:46.068Z,528.00
2019-05-15T09:13:46.049Z,532.00
2019-05-15T09:14:46.019Z,512.00
2019-05-15T09:15:48.118Z,488.00
2019-05-15T09:16:45.992Z,492.00
2019-05-15T09:17:48.609Z,504.00
2019-05-15T09:18:48.346Z,524.00
2019-05-15T09:19:48.017Z,524.00
2019-05-15T09:20:48.784Z,504.00
2019-05-15T09:21:45.913Z,456.00
2019-05-15T09:22:45.897Z,408.00
2019-05-15T09:23:45.877Z,376.00
2019-05-15T09:24:45.859Z,388.00
2019-05-15T09:25:48.926Z,412.00
2019-05-15T09:26:48.488Z,436.00
2019-05-15T09:27:45.811Z,448.00
2019-05-15T09:28:45.794Z,432.00
2019-05-15T09:29:48.256Z,420.00
2019-05-15T09:30:48.122Z,408.00
2019-05-15T09:31:48.130Z,408.00
2019-05-15T09:32:48.145Z,400.00
2019-05-15T09:33:45.718Z,412.00
2019-05-15T09:34:51.701Z,424.00
2019-05-15T09:35:45.682Z,420.00
2019-05-15T09:36:46.299Z,416.00
2019-05-15T09:37:45.658Z,424.00
2019-05-15T09:38:45.634Z,436.00
2019-05-15T09:39:45.633Z,448.00
2019-05-15T09:40:46.642Z,464.00
2019-05-15T09:41:45.587Z,472.00
2019-05-15T09:42:45.565Z,476.00
2019-05-15T09:43:45.557Z,480.00
2019-05-15T09:44:45.539Z,472.00
2019-05-15T09:45:45.522Z,456.00
2019-05-15T09:46:45.515Z,448.00
2019-05-15T09:47:48.108Z,452.00
2019-05-15T09:48:48.661Z,468.00
2019-05-15T09:49:45.457Z,492.00
2019-05-15T09:50:45.440Z,492.00
2019-05-15T09:51:45.426Z,488.00
2019-05-15T09:52:45.420Z,488.00
2019-05-15T09:53:45.396Z,488.00
2019-05-15T09:54:45.379Z,492.00
2019-05-15T09:55:45.366Z,496.00
2019-05-15T09:56:49.121Z,500.00
2019-05-15T09:57:45.330Z,500.00
2019-05-15T09:58:45.314Z,496.00
2019-05-15T09:59:45.297Z,492.00
2019-05-15T10:00:50.799Z,480.00
2019-05-15T10:01:45.267Z,480.00
2019-05-15T10:02:45.248Z,492.00
2019-05-15T10:03:45.239Z,516.00
2019-05-15T10:04:45.222Z,532.00
2019-05-15T10:05:45.203Z,532.00
2019-05-15T10:06:45.185Z,520.00
2019-05-15T10:07:45.174Z,516.00
2019-05-15T10:08:45.152Z,516.00
2019-05-15T10:09:45.138Z,520.00
2019-05-15T10:10:45.124Z,512.00
2019-05-15T10:11:45.105Z,500.00
2019-05-15T10:12:45.171Z,492.00
2019-05-15T10:13:45.070Z,508.00
2019-05-15T10:14:45.059Z,528.00
2019-05-15T10:15:48.341Z,544.00
2019-05-15T10:16:45.028Z,548.00
2019-05-15T10:17:45.011Z,548.00
2019-05-15T10:18:44.997Z,544.00
2019-05-15T10:19:44.978Z,540.00
2019-05-15T10:20:44.968Z,532.00
2019-05-15T10:21:44.946Z,528.00
2019-05-15T10:22:44.938Z,524.00
2019-05-15T10:23:44.922Z,508.00
2019-05-15T10:24:44.904Z,496.00
2019-05-15T10:25:44.885Z,496.00
2019-05-15T10:26:44.871Z,492.00
2019-05-15T10:27:44.855Z,492.00
2019-05-15T10:28:44.836Z,492.00
2019-05-15T10:29:44.821Z,468.00
2019-05-15T10:30:44.808Z,452.00
2019-05-15T10:31:44.787Z,452.00
2019-05-15T10:32:44.780Z,452.00
2019-05-15T10:33:44.764Z,448.00
2019-05-15T10:34:44.746Z,452.00
2019-05-15T10:35:44.726Z,468.00
2019-05-15T10:36:44.716Z,476.00
2019-05-15T10:37:44.696Z,480.00
2019-05-15T10:38:44.796Z,496.00
2019-05-15T10:39:44.662Z,508.00
2019-05-15T10:40:59.998Z,508.00
2019-05-15T10:41:44.633Z,500.00
2019-05-15T10:42:44.622Z,508.00
2019-05-15T10:43:47.143Z,504.00
2019-05-15T10:44:44.585Z,484.00
2019-05-15T10:45:44.575Z,468.00
2019-05-15T10:46:44.551Z,460.00
2019-05-15T10:47:44.536Z,460.00
2019-05-15T10:48:44.521Z,496.00
2019-05-15T10:49:44.506Z,532.00
2019-05-15T10:50:44.490Z,560.00
2019-05-15T10:51:44.484Z,556.00
2019-05-15T10:52:44.463Z,528.00
2019-05-15T10:53:44.446Z,496.00
2019-05-15T10:54:44.423Z,488.00
2019-05-15T10:55:44.417Z,496.00
2019-05-15T10:56:44.393Z,512.00
2019-05-15T10:57:44.825Z,520.00
2019-05-15T10:58:44.366Z,516.00
2019-05-15T10:59:44.342Z,504.00
2019-05-15T11:00:44.336Z,492.00
2019-05-15T11:01:44.317Z,492.00
2019-05-15T11:02:44.299Z,492.00
2019-05-15T11:03:44.283Z,492.00
2019-05-15T11:04:44.267Z,492.00
2019-05-15T11:05:45.744Z,496.00
2019-05-15T11:06:44.234Z,512.00
2019-05-15T11:07:44.224Z,520.00
2019-05-15T11:08:44.206Z,524.00
2019-05-15T11:09:44.193Z,524.00
2019-05-15T11:10:44.172Z,516.00
2019-05-15T11:11:44.157Z,528.00
2019-05-15T11:12:44.138Z,540.00
2019-05-15T11:13:44.126Z,532.00
2019-05-15T11:14:44.109Z,516.00
2019-05-15T11:15:44.092Z,512.00
2019-05-15T11:16:44.076Z,516.00
2019-05-15T11:17:44.064Z,524.00
2019-05-15T11:18:44.048Z,524.00
2019-05-15T11:19:44.034Z,524.00
2019-05-15T11:20:44.042Z,520.00
2019-05-15T11:21:43.998Z,512.00
2019-05-15T11:22:44.044Z,508.00
2019-05-15T11:23:43.967Z,516.00
2019-05-15T11:24:43.970Z,528.00
2019-05-15T11:25:43.935Z,544.00
2019-05-15T11:26:43.923Z,556.00
2019-05-15T11:27:43.923Z,556.00
2019-05-15T11:28:43.886Z,560.00
2019-05-15T11:29:43.878Z,552.00
2019-05-15T11:30:43.868Z,556.00
2019-05-15T11:31:43.842Z,556.00
2019-05-15T11:32:43.823Z,564.00
2019-05-15T11:33:43.810Z,548.00
2019-05-15T11:34:43.795Z,544.00
2019-05-15T11:35:56.876Z,544.00
2019-05-15T11:36:43.763Z,540.00
2019-05-15T11:37:46.271Z,528.00
2019-05-15T11:38:43.731Z,516.00
2019-05-15T11:39:46.667Z,528.00
2019-05-15T11:40:43.705Z,564.00
2019-05-15T11:41:43.703Z,576.00
2019-05-15T11:42:43.673Z,572.00
2019-05-15T11:43:43.651Z,564.00
2019-05-15T11:44:43.641Z,548.00
2019-05-15T11:45:43.623Z,512.00
2019-05-15T11:46:43.648Z,492.00
2019-05-15T11:47:43.594Z,480.00
2019-05-15T11:48:43.587Z,472.00
2019-05-15T11:49:43.558Z,480.00
2019-05-15T11:50:43.546Z,480.00
2019-05-15T11:51:43.534Z,496.00
2019-05-15T11:52:43.523Z,524.00
2019-05-15T11:53:43.507Z,560.00
2019-05-15T11:54:43.505Z,600.00
2019-05-15T11:55:43.474Z,620.00
2019-05-15T11:56:43.460Z,572.00
2019-05-15T11:57:47.324Z,588.00
2019-05-15T11:58:43.423Z,684.00
2019-05-15T11:59:45.433Z,672.00
2019-05-15T12:00:43.395Z,624.00
2019-05-15T12:01:43.472Z,588.00
2019-05-15T12:02:43.365Z,640.00
2019-05-15T12:03:43.351Z,672.00
2019-05-15T12:04:43.347Z,692.00
2019-05-15T12:05:43.318Z,680.00
2019-05-15T12:06:56.993Z,656.00
2019-05-15T12:07:47.677Z,620.00
2019-05-15T12:08:43.262Z,612.00
2019-05-15T12:09:43.255Z,636.00
2019-05-15T12:10:43.240Z,656.00
2019-05-15T12:11:43.224Z,688.00
2019-05-15T12:12:43.207Z,716.00
2019-05-15T12:13:43.195Z,688.00
2019-05-15T12:14:43.179Z,732.00
2019-05-15T12:15:43.163Z,668.00
2019-05-15T12:17:01.115Z,664.00
2019-05-15T12:17:43.133Z,712.00
2019-05-15T12:18:43.116Z,760.00
2019-05-15T12:19:43.098Z,816.00
2019-05-15T12:20:43.086Z,708.00
2019-05-15T12:21:43.073Z,700.00
2019-05-15T12:22:43.054Z,712.00
2019-05-15T12:23:43.036Z,764.00
2019-05-15T12:24:43.040Z,788.00
2019-05-15T12:25:43.005Z,1416.00
2019-05-15T12:26:42.985Z,1316.00
2019-05-15T12:27:42.975Z,876.00
2019-05-15T12:28:42.959Z,708.00
2019-05-15T12:29:42.940Z,696.00
2019-05-15T12:30:42.928Z,736.00
2019-05-15T12:31:42.917Z,764.00
2019-05-15T12:32:42.897Z,756.00
2019-05-15T12:33:42.908Z,732.00
2019-05-15T12:34:42.861Z,720.00
2019-05-15T12:35:42.847Z,684.00
2019-05-15T12:36:51.673Z,732.00
2019-05-15T12:37:42.817Z,784.00
2019-05-15T12:38:42.802Z,804.00
2019-05-15T12:39:42.787Z,892.00
2019-05-15T12:59:44.640Z,672.00
2019-05-15T13:00:42.468Z,1024.00
2019-05-15T13:01:42.447Z,1456.00
2019-05-15T13:02:42.433Z,720.00
2019-05-15T13:03:42.434Z,624.00
2019-05-15T13:04:42.405Z,564.00
2019-05-15T13:05:42.391Z,604.00